M I D A S
Marine Information and Data Acquisition System
Tripno 1254 of the Zeeleeuw from 2007-01-08 07:48:13 to 2007-01-08 10:38:09
Back to CruiseResearch ActivitiesStationsMapUnderway DataData graphs

EquipmentUnitsComments
TimeDGPSUTC
LatitudeDGPSDM.mWGS84
LongitudeDGPSDM.mWGS84
SpeedMeteo Stationm/sRelative wind speed
DirectionMeteo StationdegRelative wind direction
TemperatureMeteo Stationdeg CelciusAir temperature
PressureMeteo StationPaAtmospheric pressure
HumidityMeteo Station%Relative humidity
Missing or incorrect values are displayed as -999
Metereological data collected by the RV Zeeleeuw from 2007-01-08 07:44:18 to 2007-01-08 10:48:54
Time Latitude Longitude Speed Direction Temperature Pressure Humidity
2007-01-08 07:45 51°13.6 2°56.094 -999 -999 -999 -999 -999
2007-01-08 07:46 51°13.599 2°56.094 -999 -999 -999 -999 -999
2007-01-08 07:47 51°13.599 2°56.095 -999 -999 -999 -999 -999
2007-01-08 07:48 51°13.6 2°56.095 -999 -999 -999 -999 -999
2007-01-08 07:49 51°13.598 2°56.091 -999 -999 -999 -999 -999
2007-01-08 07:50 51°13.61 2°56.043 -999 -999 -999 -999 -999
2007-01-08 07:51 51°13.639 2°55.96 -999 -999 -999 -999 -999
2007-01-08 07:52 51°13.678 2°55.875 -999 -999 -999 -999 -999
2007-01-08 07:53 51°13.713 2°55.782 -999 -999 -999 -999 -999
2007-01-08 07:54 51°13.731 2°55.71 -999 -999 -999 -999 -999
2007-01-08 07:55 51°13.74 2°55.726 -999 -999 -999 -999 -999
2007-01-08 07:56 51°13.73 2°55.714 -999 -999 -999 -999 -999
2007-01-08 07:57 51°13.746 2°55.71 -999 -999 -999 -999 -999
2007-01-08 07:58 51°13.809 2°55.652 -999 -999 -999 -999 -999
2007-01-08 07:59 51°13.905 2°55.58 -999 -999 -999 -999 -999
2007-01-08 08:00 51°14.015 2°55.504 -999 -999 -999 -999 -999
2007-01-08 08:01 51°14.122 2°55.427 -999 -999 -999 -999 -999
2007-01-08 08:02 51°14.224 2°55.322 -999 -999 -999 -999 -999
2007-01-08 08:03 51°14.323 2°55.147 -999 -999 -999 -999 -999
2007-01-08 08:04 51°14.411 2°54.928 -999 -999 -999 -999 -999
2007-01-08 08:05 51°14.433 2°54.634 -999 -999 -999 -999 -999
2007-01-08 08:06 51°14.364 2°54.317 -999 -999 -999 -999 -999
2007-01-08 08:07 51°14.256 2°53.994 -999 -999 -999 -999 -999
2007-01-08 08:08 51°14.15 2°53.676 -999 -999 -999 -999 -999
2007-01-08 08:09 51°14.037 2°53.353 -999 -999 -999 -999 -999
2007-01-08 08:10 51°13.915 2°53.036 -999 -999 -999 -999 -999
2007-01-08 08:11 51°13.793 2°52.718 -999 -999 -999 -999 -999
2007-01-08 08:12 51°13.668 2°52.394 -999 -999 -999 -999 -999
2007-01-08 08:13 51°13.548 2°52.08 -999 -999 -999 -999 -999
2007-01-08 08:14 51°13.427 2°51.754 -999 -999 -999 -999 -999
2007-01-08 08:15 51°13.309 2°51.44 -999 -999 -999 -999 -999
2007-01-08 08:16 51°13.186 2°51.116 -999 -999 -999 -999 -999
2007-01-08 08:17 51°13.065 2°50.793 -999 -999 -999 -999 -999
2007-01-08 08:18 51°12.948 2°50.466 -999 -999 -999 -999 -999
2007-01-08 08:19 51°12.833 2°50.136 -999 -999 -999 -999 -999
2007-01-08 08:20 51°12.72 2°49.806 -999 -999 -999 -999 -999
2007-01-08 08:21 51°12.607 2°49.473 -999 -999 -999 -999 -999
2007-01-08 08:22 51°12.493 2°49.144 -999 -999 -999 -999 -999
2007-01-08 08:23 51°12.381 2°48.813 -999 -999 -999 -999 -999
2007-01-08 08:24 51°12.27 2°48.487 -999 -999 -999 -999 -999
2007-01-08 08:25 51°12.155 2°48.15 -999 -999 -999 -999 -999
2007-01-08 08:26 51°12.042 2°47.817 -999 -999 -999 -999 -999
2007-01-08 08:27 51°11.931 2°47.49 -999 -999 -999 -999 -999
2007-01-08 08:28 51°11.817 2°47.152 -999 -999 -999 -999 -999
2007-01-08 08:29 51°11.707 2°46.824 -999 -999 -999 -999 -999
2007-01-08 08:30 51°11.593 2°46.484 -999 -999 -999 -999 -999
2007-01-08 08:31 51°11.489 2°46.149 -999 -999 -999 -999 -999
2007-01-08 08:32 51°11.384 2°45.803 -999 -999 -999 -999 -999
2007-01-08 08:33 51°11.281 2°45.468 -999 -999 -999 -999 -999
2007-01-08 08:34 51°11.176 2°45.123 -999 -999 -999 -999 -999
2007-01-08 08:35 51°11.072 2°44.783 -999 -999 -999 -999 -999
2007-01-08 08:36 51°10.971 2°44.442 -999 -999 -999 -999 -999
2007-01-08 08:37 51°10.868 2°44.102 -999 -999 -999 -999 -999
2007-01-08 08:38 51°10.766 2°43.762 -999 -999 -999 -999 -999
2007-01-08 08:39 51°10.665 2°43.423 -999 -999 -999 -999 -999
2007-01-08 08:40 51°10.565 2°43.086 -999 -999 -999 -999 -999
2007-01-08 08:41 51°10.464 2°42.752 -999 -999 -999 -999 -999
2007-01-08 08:42 51°10.366 2°42.415 -999 -999 -999 -999 -999
2007-01-08 08:43 51°10.269 2°42.081 -999 -999 -999 -999 -999
2007-01-08 08:44 51°10.174 2°41.744 -999 -999 -999 -999 -999
2007-01-08 08:45 51°10.089 2°41.4 -999 -999 -999 -999 -999
2007-01-08 08:46 51°9.995 2°41.061 -999 -999 -999 -999 -999
2007-01-08 08:47 51°9.912 2°40.713 -999 -999 -999 -999 -999
2007-01-08 08:48 51°9.827 2°40.366 -999 -999 -999 -999 -999
2007-01-08 08:49 51°9.738 2°40.02 -999 -999 -999 -999 -999
2007-01-08 08:50 51°9.651 2°39.671 -999 -999 -999 -999 -999
2007-01-08 08:51 51°9.562 2°39.322 -999 -999 -999 -999 -999
2007-01-08 08:52 51°9.478 2°38.971 -999 -999 -999 -999 -999
2007-01-08 08:53 51°9.39 2°38.621 -999 -999 -999 -999 -999
2007-01-08 08:54 51°9.307 2°38.268 -999 -999 -999 -999 -999
2007-01-08 08:55 51°9.223 2°37.916 -999 -999 -999 -999 -999
2007-01-08 08:56 51°9.139 2°37.569 -999 -999 -999 -999 -999
2007-01-08 08:57 51°9.1 2°37.322 -999 -999 -999 -999 -999
2007-01-08 08:58 51°9.116 2°37.206 -999 -999 -999 -999 -999
2007-01-08 08:59 51°9.112 2°37.186 -999 -999 -999 -999 -999
2007-01-08 09:00 51°9.136 2°37.179 -999 -999 -999 -999 -999
2007-01-08 09:01 51°9.16 2°37.176 -999 -999 -999 -999 -999
2007-01-08 09:02 51°9.156 2°37.169 -999 -999 -999 -999 -999
2007-01-08 09:03 51°9.151 2°37.163 -999 -999 -999 -999 -999
2007-01-08 09:04 51°9.147 2°37.156 -999 -999 -999 -999 -999
2007-01-08 09:05 51°9.14 2°37.149 -999 -999 -999 -999 -999
2007-01-08 09:06 51°9.134 2°37.141 -999 -999 -999 -999 -999
2007-01-08 09:07 51°9.128 2°37.135 -999 -999 -999 -999 -999
2007-01-08 09:08 51°9.122 2°37.127 -999 -999 -999 -999 -999
2007-01-08 09:09 51°9.117 2°37.121 -999 -999 -999 -999 -999
2007-01-08 09:10 51°9.111 2°37.114 -999 -999 -999 -999 -999
2007-01-08 09:11 51°9.105 2°37.108 -999 -999 -999 -999 -999
2007-01-08 09:12 51°9.1 2°37.102 -999 -999 -999 -999 -999
2007-01-08 09:13 51°9.097 2°37.097 -999 -999 -999 -999 -999
2007-01-08 09:14 51°9.142 2°37.126 -999 -999 -999 -999 -999
2007-01-08 09:15 51°9.175 2°37.17 -999 -999 -999 -999 -999
2007-01-08 09:16 51°9.179 2°37.172 -999 -999 -999 -999 -999
2007-01-08 09:17 51°9.181 2°37.166 -999 -999 -999 -999 -999
2007-01-08 09:18 51°9.182 2°37.158 -999 -999 -999 -999 -999
2007-01-08 09:19 51°9.178 2°37.149 -999 -999 -999 -999 -999
2007-01-08 09:20 51°9.174 2°37.141 -999 -999 -999 -999 -999
2007-01-08 09:21 51°9.17 2°37.134 -999 -999 -999 -999 -999
2007-01-08 09:22 51°9.165 2°37.128 -999 -999 -999 -999 -999
2007-01-08 09:23 51°9.16 2°37.121 -999 -999 -999 -999 -999
2007-01-08 09:24 51°9.155 2°37.116 -999 -999 -999 -999 -999
2007-01-08 09:25 51°9.152 2°37.11 -999 -999 -999 -999 -999
2007-01-08 09:26 51°9.148 2°37.103 -999 -999 -999 -999 -999
2007-01-08 09:27 51°9.145 2°37.096 -999 -999 -999 -999 -999
2007-01-08 09:28 51°9.142 2°37.088 -999 -999 -999 -999 -999
2007-01-08 09:29 51°9.139 2°37.082 -999 -999 -999 -999 -999
2007-01-08 09:30 51°9.155 2°37.089 -999 -999 -999 -999 -999
2007-01-08 09:31 51°9.166 2°37.147 -999 -999 -999 -999 -999
2007-01-08 09:32 51°9.159 2°37.154 -999 -999 -999 -999 -999
2007-01-08 09:33 51°9.15 2°37.149 -999 -999 -999 -999 -999
2007-01-08 09:34 51°9.139 2°37.149 -999 -999 -999 -999 -999
2007-01-08 09:35 51°9.125 2°37.149 -999 -999 -999 -999 -999
2007-01-08 09:36 51°9.107 2°37.152 -999 -999 -999 -999 -999
2007-01-08 09:37 51°9.095 2°37.249 -999 -999 -999 -999 -999
2007-01-08 09:38 51°9.168 2°37.463 -999 -999 -999 -999 -999
2007-01-08 09:39 51°9.258 2°37.747 -999 -999 -999 -999 -999
2007-01-08 09:40 51°9.359 2°38.038 -999 -999 -999 -999 -999
2007-01-08 09:41 51°9.456 2°38.334 -999 -999 -999 -999 -999
2007-01-08 09:42 51°9.552 2°38.632 -999 -999 -999 -999 -999
2007-01-08 09:43 51°9.65 2°38.928 -999 -999 -999 -999 -999
2007-01-08 09:44 51°9.75 2°39.222 -999 -999 -999 -999 -999
2007-01-08 09:45 51°9.845 2°39.519 -999 -999 -999 -999 -999
2007-01-08 09:46 51°9.941 2°39.816 -999 -999 -999 -999 -999
2007-01-08 09:47 51°10.035 2°40.112 -999 -999 -999 -999 -999
2007-01-08 09:48 51°10.133 2°40.404 -999 -999 -999 -999 -999
2007-01-08 09:49 51°10.228 2°40.697 -999 -999 -999 -999 -999
2007-01-08 09:50 51°10.326 2°40.988 -999 -999 -999 -999 -999
2007-01-08 09:51 51°10.422 2°41.279 -999 -999 -999 -999 -999
2007-01-08 09:52 51°10.516 2°41.572 -999 -999 -999 -999 -999
2007-01-08 09:53 51°10.613 2°41.864 -999 -999 -999 -999 -999
2007-01-08 09:54 51°10.709 2°42.161 -999 -999 -999 -999 -999
2007-01-08 09:55 51°10.801 2°42.455 -999 -999 -999 -999 -999
2007-01-08 09:56 51°10.893 2°42.751 -999 -999 -999 -999 -999
2007-01-08 09:57 51°10.987 2°43.046 -999 -999 -999 -999 -999
2007-01-08 09:58 51°11.082 2°43.339 -999 -999 -999 -999 -999
2007-01-08 09:59 51°11.174 2°43.632 -999 -999 -999 -999 -999
2007-01-08 10:00 51°11.262 2°43.928 -999 -999 -999 -999 -999
2007-01-08 10:01 51°11.34 2°44.23 -999 -999 -999 -999 -999
2007-01-08 10:02 51°11.419 2°44.534 -999 -999 -999 -999 -999
2007-01-08 10:03 51°11.495 2°44.837 -999 -999 -999 -999 -999
2007-01-08 10:04 51°11.566 2°45.137 -999 -999 -999 -999 -999
2007-01-08 10:05 51°11.635 2°45.441 -999 -999 -999 -999 -999
2007-01-08 10:06 51°11.708 2°45.741 -999 -999 -999 -999 -999
2007-01-08 10:07 51°11.776 2°46.047 -999 -999 -999 -999 -999
2007-01-08 10:08 51°11.845 2°46.35 -999 -999 -999 -999 -999
2007-01-08 10:09 51°11.917 2°46.653 -999 -999 -999 -999 -999
2007-01-08 10:10 51°11.989 2°46.957 -999 -999 -999 -999 -999
2007-01-08 10:11 51°12.06 2°47.263 -999 -999 -999 -999 -999
2007-01-08 10:12 51°12.139 2°47.562 -999 -999 -999 -999 -999
2007-01-08 10:13 51°12.233 2°47.851 -999 -999 -999 -999 -999
2007-01-08 10:14 51°12.338 2°48.129 -999 -999 -999 -999 -999
2007-01-08 10:15 51°12.444 2°48.41 -999 -999 -999 -999 -999
2007-01-08 10:16 51°12.547 2°48.695 -999 -999 -999 -999 -999
2007-01-08 10:17 51°12.643 2°48.982 -999 -999 -999 -999 -999
2007-01-08 10:18 51°12.741 2°49.269 -999 -999 -999 -999 -999
2007-01-08 10:19 51°12.84 2°49.556 -999 -999 -999 -999 -999
2007-01-08 10:20 51°12.935 2°49.848 -999 -999 -999 -999 -999
2007-01-08 10:21 51°13.034 2°50.136 -999 -999 -999 -999 -999
2007-01-08 10:22 51°13.136 2°50.423 -999 -999 -999 -999 -999
2007-01-08 10:23 51°13.234 2°50.718 -999 -999 -999 -999 -999
2007-01-08 10:24 51°13.336 2°51.007 -999 -999 -999 -999 -999
2007-01-08 10:25 51°13.436 2°51.294 -999 -999 -999 -999 -999
2007-01-08 10:26 51°13.534 2°51.582 -999 -999 -999 -999 -999
2007-01-08 10:27 51°13.635 2°51.869 -999 -999 -999 -999 -999
2007-01-08 10:28 51°13.731 2°52.159 -999 -999 -999 -999 -999
2007-01-08 10:29 51°13.83 2°52.448 -999 -999 -999 -999 -999
2007-01-08 10:30 51°13.925 2°52.741 -999 -999 -999 -999 -999
2007-01-08 10:31 51°14.019 2°53.034 -999 -999 -999 -999 -999
2007-01-08 10:32 51°14.12 2°53.322 -999 -999 -999 -999 -999
2007-01-08 10:33 51°14.221 2°53.604 -999 -999 -999 -999 -999
2007-01-08 10:34 51°14.321 2°53.89 -999 -999 -999 -999 -999
2007-01-08 10:35 51°14.434 2°54.166 -999 -999 -999 -999 -999
2007-01-08 10:36 51°14.487 2°54.485 -999 -999 -999 -999 -999
2007-01-08 10:37 51°14.444 2°54.789 -999 -999 -999 -999 -999
2007-01-08 10:38 51°14.364 2°55.065 -999 -999 -999 -999 -999
2007-01-08 10:39 51°14.244 2°55.303 -999 -999 -999 -999 -999
2007-01-08 10:40 51°14.097 2°55.436 -999 -999 -999 -999 -999
2007-01-08 10:41 51°13.98 2°55.521 -999 -999 -999 -999 -999
2007-01-08 10:42 51°13.87 2°55.6 -999 -999 -999 -999 -999
2007-01-08 10:43 51°13.773 2°55.69 -999 -999 -999 -999 -999
2007-01-08 10:44 51°13.707 2°55.787 -999 -999 -999 -999 -999
2007-01-08 10:45 51°13.658 2°55.887 -999 -999 -999 -999 -999
2007-01-08 10:46 51°13.624 2°55.979 -999 -999 -999 -999 -999
2007-01-08 10:47 51°13.608 2°56.056 -999 -999 -999 -999 -999
2007-01-08 10:48 51°13.6 2°56.091 -999 -999 -999 -999 -999